Prince George, British Columbia

12:06 PM PST on February 08, 2016 (GMT -0800)
Prince George | | Change Station
CLOSE
Current Station
Airport
Location: Prince George,
Elevation: 2267 ft
Nearby Weather Stations

Elev 2267 ft 53.88 °N, 122.68 °W | Updated 6 minutes ago

Clear
Clear
39 °F
Feels Like 30 °F
N
16
Wind Variable Wind from South
Gusts 23 mph

Today is forecast to be nearly the same temperature as yesterday.

Today
High -- | Low -- °F
--% Chance of Precip.
Yesterday
High -- | Low -- °F
Precip. -- in
Pressure 30.41 in
Visibility 9.0 miles
Clouds Clear
Windchill 30 °F
Dew Point 30 °F
Humidity 70%
Rainfall 0.00 in
Snow Depth Not available.
7:44 AM 5:05 PM
New Moon, 0% visible
METAR CYXS 082000Z AUTO 19014G20KT 9SM CLR 04/M01 A3031 RMK SLP296
Pressure 30.41 in
Visibility 9.0 miles
Clouds Clear
Windchill 30 °F
Dew Point 30 °F
Humidity 70%
Rainfall 0.00 in
Snow Depth Not available.
7:44 AM 5:05 PM
New Moon, 0% visible
METAR CYXS 082000Z AUTO 19014G20KT 9SM CLR 04/M01 A3031 RMK SLP296

10-Day Weather Forecast

Almanac

Astronomy

Feb. 08, 2016 Rise Set
Actual Time
Civil Twilight
Nautical Twilight
Astronomical Twilight
Moon
Length of Visible Light
Length of Day
Tomorrow will be .
, % of the Moon is Illuminated

Today's Extremes

Country Highs Country Lows

Community

WunderPhotos

Upload Photos

1,891,503 photos uploaded!

WunderBlog® & News

Nearby

Air Quality

  Air Quality AQ Index Pollutant
Not available.

Snow Depth

Station Depth Elevation

Earthquake Activity

City Distance Mag. Time & Date
Minimum magnitude displayed is 2.5.

Coastal Water Temperatures

Place Temperature

Stations

Nearby Weather Stations

Station Location Temp. Windchill Dew Point Humidity Wind Precip. Elev Updated Type
                   

Watches & Warnings

There are currently no watches in effect.